createdAt,value
2022-09-21T00:00:52.755Z,102152.63
2022-09-21T00:01:54.855Z,102151.75
2022-09-21T00:02:58.467Z,102148.97
2022-09-21T00:04:02.425Z,102148.97
2022-09-21T00:05:06.418Z,102143.66
2022-09-21T00:06:10.765Z,102139.19
2022-09-21T00:07:13.294Z,102141.84
2022-09-21T00:08:14.928Z,102139.19
2022-09-21T00:09:17.555Z,102145.38
2022-09-21T00:10:20.085Z,102148.13
2022-09-21T00:11:27.891Z,102141.97
2022-09-21T00:12:31.176Z,102147.28
2022-09-21T00:13:37.225Z,102147.28
2022-09-21T00:14:41.076Z,102145.59
2022-09-21T00:15:42.618Z,102145.59
2022-09-21T00:16:45.143Z,102144.72
2022-09-21T00:17:47.509Z,102147.28
2022-09-21T00:18:50.186Z,102150.91
2022-09-21T00:19:52.373Z,102148.25
2022-09-21T00:20:54.913Z,102147.28
2022-09-21T00:21:57.763Z,102144.50
2022-09-21T00:22:59.300Z,102142.72
2022-09-21T00:24:02.974Z,102147.91
2022-09-21T00:25:05.404Z,102142.50
2022-09-21T00:26:09.713Z,102144.31
2022-09-21T00:27:12.239Z,102148.78
2022-09-21T00:28:13.788Z,102149.53
2022-09-21T00:29:16.313Z,102148.69
2022-09-21T00:30:19.241Z,102140.78
2022-09-21T00:31:22.609Z,102153.88
2022-09-21T00:32:25.028Z,102153.88
2022-09-21T00:33:27.525Z,102146.88
2022-09-21T00:34:30.194Z,102151.34
2022-09-21T00:35:31.729Z,102146.88
2022-09-21T00:36:35.334Z,102148.78
2022-09-21T00:37:36.847Z,102150.50
2022-09-21T00:38:39.543Z,102147.91
2022-09-21T00:39:41.173Z,102156.75
2022-09-21T00:40:43.634Z,102162.09
2022-09-21T00:41:45.534Z,102153.44
2022-09-21T00:42:48.122Z,102159.63
2022-09-21T00:44:19.608Z,102152.63
2022-09-21T00:45:23.473Z,102158.91
2022-09-21T00:46:28.809Z,102159.84
2022-09-21T00:47:35.254Z,102154.50
2022-09-21T00:48:36.879Z,102154.72
2022-09-21T00:49:40.575Z,102158.34
2022-09-21T00:50:49.538Z,102153.00
2022-09-21T00:51:53.122Z,102155.78
2022-09-21T00:52:59.315Z,102157.50
2022-09-21T00:54:04.684Z,102154.06
2022-09-21T00:55:12.848Z,102151.53
2022-09-21T00:56:15.492Z,102154.19
2022-09-21T00:57:21.080Z,102154.28
2022-09-21T00:58:28.166Z,102151.75
2022-09-21T00:59:32.072Z,102154.50
2022-09-21T01:00:35.154Z,102156.28
2022-09-21T01:01:38.322Z,102151.91
2022-09-21T01:02:40.128Z,102151.91
2022-09-21T01:03:45.653Z,102154.56
2022-09-21T01:04:47.507Z,102155.56
2022-09-21T01:05:50.011Z,102157.44
2022-09-21T01:06:52.573Z,102150.44
2022-09-21T01:07:56.674Z,102149.66
2022-09-21T01:08:59.839Z,102151.47
2022-09-21T01:10:06.363Z,102154.25
2022-09-21T01:11:34.259Z,102156.91
2022-09-21T01:12:49.132Z,102158.72
2022-09-21T01:14:07.996Z,102155.31
2022-09-21T01:15:25.876Z,102154.44
2022-09-21T01:16:36.474Z,102152.72
2022-09-21T01:17:48.066Z,102153.78
2022-09-21T01:18:59.498Z,102151.22
2022-09-21T01:20:29.194Z,102151.41
2022-09-21T01:21:35.303Z,102150.56
2022-09-21T01:22:48.441Z,102150.69
2022-09-21T01:24:15.670Z,102152.50
2022-09-21T01:25:28.640Z,102154.28
2022-09-21T01:26:40.118Z,102154.47
2022-09-21T01:28:06.377Z,102143.94
2022-09-21T01:29:16.896Z,102157.31
2022-09-21T01:30:21.808Z,102152.22
2022-09-21T01:31:27.337Z,102148.81
2022-09-21T01:32:37.218Z,102151.66
2022-09-21T01:33:43.998Z,102155.28
2022-09-21T01:34:52.097Z,102151.94
2022-09-21T01:35:57.620Z,102152.03
2022-09-21T01:37:04.978Z,102159.28
2022-09-21T01:38:10.117Z,102152.25
2022-09-21T01:39:14.904Z,102154.16
2022-09-21T01:40:20.678Z,102150.63
2022-09-21T01:41:28.779Z,102155.09
2022-09-21T01:42:33.763Z,102155.22
2022-09-21T01:43:41.338Z,102149.97
2022-09-21T01:44:45.992Z,102151.69
2022-09-21T01:45:53.899Z,102152.56
2022-09-21T01:46:57.558Z,102151.69
2022-09-21T01:48:01.802Z,102147.31
2022-09-21T01:49:10.467Z,102156.28
2022-09-21T01:50:14.426Z,102150.19
2022-09-21T01:51:20.406Z,102157.41
2022-09-21T01:52:30.344Z,102159.28
2022-09-21T01:54:28.546Z,102148.84
2022-09-21T01:55:35.883Z,102154.38
2022-09-21T01:56:42.052Z,102150.13
2022-09-21T01:57:53.031Z,102146.72
2022-09-21T01:59:03.348Z,102148.59
2022-09-21T02:00:08.832Z,102156.69
2022-09-21T02:01:16.563Z,102147.00
2022-09-21T02:02:23.287Z,102147.06
2022-09-21T02:03:29.883Z,102149.84
2022-09-21T02:04:34.970Z,102144.53
2022-09-21T02:05:37.534Z,102151.84
2022-09-21T02:06:41.976Z,102150.03
2022-09-21T02:07:47.331Z,102145.66
2022-09-21T02:08:50.134Z,102147.47
2022-09-21T02:09:51.918Z,102151.91
2022-09-21T02:10:55.112Z,102143.19
2022-09-21T02:11:58.310Z,102145.84
2022-09-21T02:13:05.397Z,102146.72
2022-09-21T02:14:09.662Z,102151.19
2022-09-21T02:15:13.886Z,102152.13
2022-09-21T02:16:30.153Z,102153.16
2022-09-21T02:17:41.487Z,102147.84
2022-09-21T02:18:52.076Z,102147.97
2022-09-21T02:20:03.037Z,102151.56
2022-09-21T02:21:09.059Z,102153.47
2022-09-21T02:22:16.684Z,102149.97
2022-09-21T02:23:23.850Z,102152.63
2022-09-21T02:24:34.926Z,102153.47
2022-09-21T02:25:44.605Z,102148.31
2022-09-21T02:26:54.860Z,102152.69
2022-09-21T02:28:05.239Z,102154.41
2022-09-21T02:29:15.925Z,102155.38
2022-09-21T02:30:21.185Z,102150.97
2022-09-21T02:31:32.102Z,102159.06
2022-09-21T02:32:41.701Z,102150.25
2022-09-21T02:33:55.959Z,102160.13
2022-09-21T02:35:04.625Z,102158.41
2022-09-21T02:36:14.999Z,102156.69
2022-09-21T02:37:22.890Z,102158.59
2022-09-21T02:38:35.150Z,102157.75
2022-09-21T02:39:43.296Z,102151.56
2022-09-21T02:40:53.778Z,102156.88
2022-09-21T02:42:07.561Z,102155.19
2022-09-21T02:43:14.318Z,102150.72
2022-09-21T02:44:22.449Z,102153.38
2022-09-21T02:45:29.471Z,102142.72
2022-09-21T02:46:35.537Z,102151.56
2022-09-21T02:47:45.132Z,102152.53
2022-09-21T02:48:51.378Z,102152.53
2022-09-21T02:49:56.590Z,102151.69
2022-09-21T02:51:04.407Z,102153.47
2022-09-21T02:52:11.720Z,102149.97
2022-09-21T02:53:17.812Z,102145.59
2022-09-21T02:54:22.571Z,102151.94
2022-09-21T02:55:27.189Z,102145.78
2022-09-21T02:56:31.177Z,102137.91
2022-09-21T02:57:33.640Z,102145.88
2022-09-21T02:58:38.707Z,102154.88
2022-09-21T02:59:41.839Z,102143.41
2022-09-21T03:00:44.785Z,102149.75
2022-09-21T03:01:48.212Z,102153.28
2022-09-21T03:02:49.742Z,102153.38
2022-09-21T03:03:52.222Z,102156.97
2022-09-21T03:04:54.043Z,102149.94
2022-09-21T03:05:56.536Z,102158.88
2022-09-21T03:06:58.081Z,102153.66
2022-09-21T03:08:00.550Z,102155.56
2022-09-21T03:09:02.060Z,102152.13
2022-09-21T03:10:06.190Z,102159.28
2022-09-21T03:11:10.719Z,102154.03
2022-09-21T03:12:12.392Z,102149.59
2022-09-21T03:13:15.076Z,102154.97
2022-09-21T03:14:17.131Z,102153.28
2022-09-21T03:15:20.063Z,102150.72
2022-09-21T03:16:24.423Z,102153.38
2022-09-21T03:17:27.189Z,102156.13
2022-09-21T03:18:29.010Z,102155.34
2022-09-21T03:19:31.491Z,102158.88
2022-09-21T03:20:33.507Z,102153.63
2022-09-21T03:21:36.002Z,102158.94
2022-09-21T03:22:37.508Z,102156.41
2022-09-21T03:23:40.389Z,102156.41
2022-09-21T03:24:47.922Z,102163.50
2022-09-21T03:25:52.176Z,102160.00
2022-09-21T03:26:53.694Z,102157.34
2022-09-21T03:27:57.199Z,102158.19
2022-09-21T03:28:58.728Z,102160.00
2022-09-21T03:30:02.292Z,102163.50
2022-09-21T03:31:05.841Z,102164.44
2022-09-21T03:32:09.702Z,102159.13
2022-09-21T03:33:12.796Z,102160.09
2022-09-21T03:34:15.247Z,102163.69
2022-09-21T03:35:16.968Z,102159.31
2022-09-21T03:36:19.547Z,102158.56
2022-09-21T03:37:21.087Z,102170.06
2022-09-21T03:38:23.675Z,102161.22
2022-09-21T03:39:25.213Z,102163.13
2022-09-21T03:40:27.931Z,102163.13
2022-09-21T03:41:29.490Z,102161.41
2022-09-21T03:42:31.976Z,102165.00
2022-09-21T03:43:33.547Z,102159.81
2022-09-21T03:44:37.356Z,102164.25
2022-09-21T03:45:42.129Z,102160.75
2022-09-21T03:46:44.627Z,102164.34
2022-09-21T03:47:48.115Z,102159.13
2022-09-21T03:48:50.679Z,102160.81
2022-09-21T03:49:52.271Z,102169.75
2022-09-21T03:50:54.840Z,102169.75
2022-09-21T03:51:57.013Z,102170.69
2022-09-21T03:52:59.795Z,102167.28
2022-09-21T03:54:01.288Z,102163.84
2022-09-21T03:55:05.000Z,102165.63
2022-09-21T03:56:06.534Z,102162.16
2022-09-21T03:57:09.469Z,102165.75
2022-09-21T03:58:11.038Z,102165.78
2022-09-21T03:59:14.499Z,102167.59
2022-09-21T04:00:16.972Z,102165.91
2022-09-21T04:01:19.509Z,102161.44
2022-09-21T04:02:22.367Z,102161.44
2022-09-21T04:03:26.242Z,102156.13
2022-09-21T04:04:27.735Z,102160.59
2022-09-21T04:05:30.261Z,102163.25
2022-09-21T04:06:32.046Z,102161.53
2022-09-21T04:07:37.631Z,102160.59
2022-09-21T04:08:39.472Z,102160.59
2022-09-21T04:09:42.489Z,102161.53
2022-09-21T04:10:44.023Z,102168.63
2022-09-21T04:11:48.094Z,102165.22
2022-09-21T04:12:49.837Z,102164.38
2022-09-21T04:13:53.191Z,102167.03
2022-09-21T04:14:54.756Z,102163.63
2022-09-21T04:15:57.302Z,102175.94
2022-09-21T04:16:58.854Z,102172.41
2022-09-21T04:18:02.865Z,102170.72
2022-09-21T04:19:05.924Z,102171.66
2022-09-21T04:20:09.991Z,102173.44
2022-09-21T04:21:11.472Z,102177.06
2022-09-21T04:22:14.118Z,102175.34
2022-09-21T04:23:16.613Z,102178.94
2022-09-21T04:24:19.179Z,102176.28
2022-09-21T04:25:21.742Z,102177.22
2022-09-21T04:26:26.072Z,102172.03
2022-09-21T04:27:28.593Z,102169.38
2022-09-21T04:28:31.140Z,102176.47
2022-09-21T04:29:33.642Z,102184.44
2022-09-21T04:30:37.765Z,102178.19
2022-09-21T04:31:41.070Z,102184.25
2022-09-21T04:32:42.759Z,102170.22
2022-09-21T04:33:45.447Z,102178.19
2022-09-21T04:34:48.350Z,102175.53
2022-09-21T04:35:55.729Z,102178.19
2022-09-21T04:36:58.331Z,102178.19
2022-09-21T04:37:59.928Z,102174.69
2022-09-21T04:39:02.457Z,102177.34
2022-09-21T04:40:05.665Z,102179.13
2022-09-21T04:41:08.278Z,102174.69
2022-09-21T04:42:10.634Z,102180.00
2022-09-21T04:43:13.352Z,102182.72
2022-09-21T04:44:15.423Z,102183.56
2022-09-21T04:45:18.002Z,102191.66
2022-09-21T04:46:20.454Z,102187.28
2022-09-21T04:47:23.582Z,102181.22
2022-09-21T04:48:25.071Z,102191.84
2022-09-21T04:49:27.721Z,102185.72
2022-09-21T04:50:30.587Z,102193.69
2022-09-21T04:51:33.101Z,102190.28
2022-09-21T04:52:34.625Z,102193.88
2022-09-21T04:53:38.721Z,102193.88
2022-09-21T04:54:40.221Z,102200.13
2022-09-21T04:55:42.774Z,102191.41
2022-09-21T04:56:44.272Z,102188.75
2022-09-21T04:57:47.298Z,102188.94
2022-09-21T04:58:48.880Z,102189.78
2022-09-21T04:59:51.343Z,102189.88
2022-09-21T05:00:55.056Z,102197.81
2022-09-21T05:01:57.556Z,102196.97
2022-09-21T05:02:59.097Z,102202.28
2022-09-21T05:04:02.866Z,102195.34
2022-09-21T05:05:06.472Z,102197.16
2022-09-21T05:06:10.787Z,102201.63
2022-09-21T05:07:13.280Z,102192.88
2022-09-21T05:08:14.781Z,102198.19
2022-09-21T05:09:35.230Z,102197.44
2022-09-21T05:10:37.706Z,102203.66
2022-09-21T05:11:39.265Z,102201.94
2022-09-21T05:12:42.104Z,102198.53
2022-09-21T05:13:43.598Z,102200.44
2022-09-21T05:14:46.134Z,102199.56
2022-09-21T05:15:47.732Z,102200.50
2022-09-21T05:16:50.423Z,102203.16
2022-09-21T05:17:51.978Z,102207.59
2022-09-21T05:18:55.442Z,102202.31
2022-09-21T05:19:57.923Z,102204.09
2022-09-21T05:21:00.972Z,102206.75
2022-09-21T05:22:04.859Z,102206.75
2022-09-21T05:23:07.296Z,102205.06
2022-09-21T05:24:09.321Z,102208.56
2022-09-21T05:25:11.788Z,102205.91
2022-09-21T05:26:13.430Z,102206.75
2022-09-21T05:27:16.064Z,102212.91
2022-09-21T05:28:19.024Z,102212.06
2022-09-21T05:29:22.063Z,102215.56
2022-09-21T05:30:25.165Z,102214.63
2022-09-21T05:31:41.166Z,102212.84
2022-09-21T05:32:48.892Z,102213.72
2022-09-21T05:33:52.853Z,102216.34
2022-09-21T05:35:07.551Z,102212.75
2022-09-21T05:36:27.290Z,102217.19
2022-09-21T05:37:50.557Z,102217.13
2022-09-21T05:38:52.684Z,102223.28
2022-09-21T05:39:55.783Z,102222.34
2022-09-21T05:40:57.844Z,102224.16
2022-09-21T05:42:01.026Z,102232.97
2022-09-21T05:43:04.075Z,102221.38
2022-09-21T05:44:06.551Z,102229.28
2022-09-21T05:45:14.228Z,102225.66
2022-09-21T05:46:20.859Z,102233.38
2022-09-21T05:47:28.995Z,102231.41
2022-09-21T05:48:37.806Z,102225.06
2022-09-21T05:49:50.062Z,102231.03
2022-09-21T05:50:59.366Z,102231.84
2022-09-21T05:52:09.348Z,102232.59
2022-09-21T05:53:24.717Z,102231.47
2022-09-21T05:54:38.228Z,102235.63
2022-09-21T05:55:48.549Z,102233.78
2022-09-21T05:56:58.289Z,102232.72
2022-09-21T05:58:07.311Z,102237.84
2022-09-21T05:59:29.805Z,102235.13
2022-09-21T06:00:42.836Z,102237.59
2022-09-21T06:01:56.501Z,102240.13
2022-09-21T06:03:26.401Z,102239.81
2022-09-21T06:04:28.503Z,102240.50
2022-09-21T06:05:31.480Z,102241.28
2022-09-21T06:06:33.014Z,102242.81
2022-09-21T06:07:35.572Z,102240.81
2022-09-21T06:08:39.020Z,102240.66
2022-09-21T06:09:43.326Z,102240.56
2022-09-21T06:10:45.369Z,102243.03
2022-09-21T06:11:48.123Z,102245.59
2022-09-21T06:12:49.653Z,102245.31
2022-09-21T06:13:52.162Z,102238.13
2022-09-21T06:14:56.260Z,102249.44
2022-09-21T06:15:58.841Z,102248.28
2022-09-21T06:17:00.382Z,102248.09
2022-09-21T06:18:03.128Z,102249.72
2022-09-21T06:19:05.142Z,102255.78
2022-09-21T06:20:08.992Z,102252.94
2022-09-21T06:21:10.877Z,102256.38
2022-09-21T06:22:13.399Z,102253.63
2022-09-21T06:23:15.486Z,102253.44
2022-09-21T06:24:24.495Z,102257.72
2022-09-21T06:25:26.852Z,102260.19
2022-09-21T06:26:29.668Z,102255.63
2022-09-21T06:27:31.255Z,102256.38
2022-09-21T06:28:33.777Z,102256.31
2022-09-21T06:29:35.306Z,102259.72
2022-09-21T06:30:39.233Z,102257.81
2022-09-21T06:31:40.962Z,102265.72
2022-09-21T06:32:43.446Z,102254.22
2022-09-21T06:33:48.142Z,102255.00
2022-09-21T06:34:51.766Z,102264.66
2022-09-21T06:35:54.474Z,102254.88
2022-09-21T06:36:56.924Z,102257.47
2022-09-21T06:37:59.653Z,102252.97
2022-09-21T06:39:02.195Z,102258.28
2022-09-21T06:40:07.412Z,102256.41
2022-09-21T06:41:09.050Z,102259.81
2022-09-21T06:42:11.569Z,102250.16
2022-09-21T06:43:13.219Z,102261.34
2022-09-21T06:44:15.736Z,102259.63
2022-09-21T06:45:18.263Z,102253.28
2022-09-21T06:46:21.410Z,102259.25
2022-09-21T06:47:22.961Z,102260.88
2022-09-21T06:48:25.852Z,102262.50
2022-09-21T06:49:29.186Z,102260.56
2022-09-21T06:50:30.772Z,102264.88
2022-09-21T06:51:33.252Z,102253.19
2022-09-21T06:52:35.920Z,102252.13
2022-09-21T06:53:37.558Z,102261.63
2022-09-21T06:54:40.863Z,102256.97
2022-09-21T06:55:44.004Z,102262.00
2022-09-21T06:56:46.579Z,102265.31
2022-09-21T06:57:48.350Z,102264.19
2022-09-21T06:58:51.834Z,102258.66
2022-09-21T06:59:54.626Z,102263.78
2022-09-21T07:00:57.772Z,102262.72
2022-09-21T07:02:02.396Z,102263.41
2022-09-21T07:03:06.635Z,102266.00
2022-09-21T07:04:10.360Z,102261.53
2022-09-21T07:05:14.996Z,102257.91
2022-09-21T07:06:21.989Z,102257.91
2022-09-21T07:07:23.599Z,102262.19
2022-09-21T07:10:05.553Z,102267.22
2022-09-21T07:13:39.512Z,102262.47
2022-09-21T07:14:41.035Z,102267.66
2022-09-21T07:15:43.516Z,102269.28
2022-09-21T07:16:45.170Z,102270.06
2022-09-21T07:18:05.281Z,102267.19
2022-09-21T07:19:11.942Z,102276.69
2022-09-21T07:20:13.761Z,102268.50
2022-09-21T07:21:17.465Z,102271.69
2022-09-21T07:22:19.535Z,102266.19
2022-09-21T07:23:22.588Z,102275.75
2022-09-21T07:24:24.103Z,102267.69
2022-09-21T07:25:26.685Z,102269.28
2022-09-21T07:26:29.370Z,102272.59
2022-09-21T07:27:32.659Z,102269.00
2022-09-21T07:28:35.537Z,102267.94
2022-09-21T07:29:38.427Z,102273.19
2022-09-21T07:30:41.718Z,102275.72
2022-09-21T07:31:43.911Z,102265.84
2022-09-21T07:32:46.409Z,102272.78
2022-09-21T07:33:47.944Z,102263.72
2022-09-21T07:34:51.255Z,102270.75
2022-09-21T07:35:53.329Z,102261.78
2022-09-21T07:36:55.825Z,102267.88
2022-09-21T07:37:57.949Z,102271.41
2022-09-21T07:39:00.494Z,102263.41
2022-09-21T07:40:05.768Z,102265.09
2022-09-21T07:41:09.195Z,102261.50
2022-09-21T07:42:10.812Z,102269.47
2022-09-21T07:43:13.460Z,102269.47
2022-09-21T07:44:15.432Z,102266.69
2022-09-21T07:45:19.441Z,102266.63
2022-09-21T07:46:22.059Z,102269.19
2022-09-21T07:47:25.594Z,102266.41
2022-09-21T07:48:28.714Z,102262.88
2022-09-21T07:49:30.431Z,102265.47
2022-09-21T07:50:34.003Z,102262.78
2022-09-21T07:51:35.867Z,102262.66
2022-09-21T07:52:38.350Z,102263.53
2022-09-21T07:54:37.121Z,102259.16
2022-09-21T07:55:38.675Z,102264.69
2022-09-21T07:56:42.068Z,102268.41
2022-09-21T07:58:02.136Z,102256.91
2022-09-21T07:59:06.731Z,102265.88
2022-09-21T08:00:09.550Z,102258.81
2022-09-21T08:01:14.556Z,102262.44
2022-09-21T08:02:17.298Z,102263.41
2022-09-21T08:03:19.034Z,102261.56
2022-09-21T08:04:24.557Z,102267.78
2022-09-21T08:05:27.048Z,102265.97
2022-09-21T08:06:32.760Z,102262.44
2022-09-21T08:07:35.294Z,102270.34
2022-09-21T08:08:37.094Z,102271.19
2022-09-21T08:09:40.717Z,102266.69
2022-09-21T08:10:42.498Z,102265.88
2022-09-21T08:11:45.042Z,102261.28
2022-09-21T08:12:46.797Z,102268.34
2022-09-21T08:13:49.557Z,102268.22
2022-09-21T08:14:51.367Z,102264.69
2022-09-21T08:15:58.986Z,102267.34
2022-09-21T08:17:03.382Z,102264.69
2022-09-21T08:18:07.123Z,102265.66
2022-09-21T08:19:09.633Z,102272.69
2022-09-21T08:20:11.377Z,102263.66
2022-09-21T08:21:14.475Z,102268.88
2022-09-21T08:22:16.955Z,102274.09
2022-09-21T08:23:18.593Z,102273.97
2022-09-21T08:24:21.477Z,102273.03
2022-09-21T08:25:27.284Z,102272.91
2022-09-21T08:26:28.845Z,102270.16
2022-09-21T08:27:31.547Z,102270.16
2022-09-21T08:28:35.503Z,102276.22
2022-09-21T08:29:37.097Z,102270.81
2022-09-21T08:30:39.618Z,102268.88
2022-09-21T08:31:41.196Z,102275.94
2022-09-21T08:32:51.409Z,102276.78
2022-09-21T08:33:55.273Z,102275.00
2022-09-21T08:34:57.835Z,102277.66
2022-09-21T08:36:00.992Z,102274.88
2022-09-21T08:37:03.609Z,102270.41
2022-09-21T08:38:05.168Z,102277.44
2022-09-21T08:39:08.042Z,102279.03
2022-09-21T08:40:10.947Z,102279.78
2022-09-21T08:41:19.809Z,102276.91
2022-09-21T08:42:40.785Z,102277.66
2022-09-21T08:43:43.897Z,102273.06
2022-09-21T08:44:50.873Z,102277.47
2022-09-21T08:45:52.821Z,102275.75
2022-09-21T08:47:04.685Z,102274.78
2022-09-21T08:48:14.095Z,102272.88
2022-09-21T08:49:21.163Z,102271.72
2022-09-21T08:50:34.309Z,102269.97
2022-09-21T08:51:41.905Z,102267.22
2022-09-21T08:52:47.284Z,102273.44
2022-09-21T08:53:53.147Z,102273.31
2022-09-21T08:54:59.411Z,102276.81
2022-09-21T08:56:02.764Z,102273.31
2022-09-21T08:57:06.435Z,102276.63
2022-09-21T08:58:23.144Z,102269.38
2022-09-21T08:59:25.681Z,102273.75
2022-09-21T09:00:31.138Z,102267.47
2022-09-21T09:01:43.975Z,102269.06
2022-09-21T09:03:25.000Z,102276.00
2022-09-21T09:04:41.758Z,102280.38
2022-09-21T09:05:50.960Z,102273.16
2022-09-21T09:07:01.760Z,102278.50
2022-09-21T09:08:19.291Z,102274.84
2022-09-21T09:09:37.578Z,102273.88
2022-09-21T09:10:47.225Z,102271.97
2022-09-21T09:12:06.346Z,102276.25
2022-09-21T09:13:38.145Z,102270.78
2022-09-21T09:14:56.923Z,102275.19
2022-09-21T09:16:09.990Z,102281.25
2022-09-21T09:17:28.063Z,102269.63
2022-09-21T09:18:43.397Z,102278.28
2022-09-21T09:19:52.545Z,102282.53
2022-09-21T09:20:58.458Z,102281.59
2022-09-21T09:22:03.484Z,102280.59
2022-09-21T09:23:11.299Z,102276.03
2022-09-21T09:24:18.422Z,102276.66
2022-09-21T09:25:22.347Z,102280.16
2022-09-21T09:26:31.095Z,102276.31
2022-09-21T09:27:37.842Z,102279.75
2022-09-21T09:28:50.125Z,102285.81
2022-09-21T09:30:03.951Z,102286.56
2022-09-21T09:31:15.616Z,102280.19
2022-09-21T09:32:19.321Z,102277.28
2022-09-21T09:33:25.508Z,102276.22
2022-09-21T09:34:33.437Z,102279.63
2022-09-21T09:35:44.446Z,102276.84
2022-09-21T09:36:58.917Z,102274.91
2022-09-21T09:38:11.901Z,102279.28
2022-09-21T09:39:16.387Z,102279.16
2022-09-21T09:40:30.135Z,102277.25
2022-09-21T09:41:51.733Z,102269.97
2022-09-21T09:43:04.664Z,102275.09
2022-09-21T09:44:24.002Z,102269.66
2022-09-21T09:45:37.118Z,102274.06
2022-09-21T09:46:51.040Z,102266.88
2022-09-21T09:48:02.522Z,102269.53
2022-09-21T09:49:20.842Z,102272.22
2022-09-21T09:50:28.767Z,102270.41
2022-09-21T09:51:38.353Z,102274.66
2022-09-21T09:52:41.572Z,102272.00
2022-09-21T09:53:44.755Z,102272.75
2022-09-21T09:54:46.808Z,102274.25
2022-09-21T09:55:51.342Z,102276.78
2022-09-21T09:56:55.130Z,102267.69
2022-09-21T09:57:56.919Z,102275.47
2022-09-21T09:59:08.037Z,102269.09
2022-09-21T10:00:15.091Z,102266.28
2022-09-21T10:01:38.762Z,102275.16
2022-09-21T10:02:48.469Z,102275.06
2022-09-21T10:04:06.749Z,102273.34
2022-09-21T10:05:21.755Z,102264.38
2022-09-21T10:06:32.518Z,102266.06
2022-09-21T10:07:37.235Z,102272.16
2022-09-21T10:08:42.102Z,102272.88
2022-09-21T10:09:44.615Z,102276.28
2022-09-21T10:10:47.964Z,102274.38
2022-09-21T10:11:51.114Z,102267.09
2022-09-21T10:12:54.068Z,102267.00
2022-09-21T10:14:08.795Z,102272.13
2022-09-21T10:15:12.682Z,102269.22
2022-09-21T10:16:18.737Z,102278.84
2022-09-21T10:17:22.160Z,102266.25
2022-09-21T10:18:26.225Z,102266.97
2022-09-21T10:19:29.254Z,102263.34
2022-09-21T10:20:32.866Z,102266.00
2022-09-21T10:21:38.694Z,102266.84
2022-09-21T10:22:40.451Z,102258.72
2022-09-21T10:23:48.529Z,102261.16
2022-09-21T10:24:53.919Z,102262.75
2022-09-21T10:25:59.719Z,102259.00
2022-09-21T10:27:10.212Z,102258.66
2022-09-21T10:28:13.691Z,102264.63
2022-09-21T10:29:22.334Z,102260.00
2022-09-21T10:30:38.430Z,102256.28
2022-09-21T10:31:55.955Z,102258.81
2022-09-21T10:33:00.139Z,102256.03
2022-09-21T10:34:14.404Z,102254.00
2022-09-21T10:35:19.845Z,102260.06
2022-09-21T10:36:34.904Z,102255.44
2022-09-21T10:37:41.273Z,102261.53
2022-09-21T10:38:42.945Z,102262.28
2022-09-21T10:39:47.378Z,102254.88
2022-09-21T10:40:49.182Z,102256.34
2022-09-21T10:41:54.225Z,102253.44
2022-09-21T10:42:58.537Z,102260.28
2022-09-21T10:44:01.245Z,102252.88
2022-09-21T10:45:16.603Z,102254.31
2022-09-21T10:46:32.792Z,102259.41
2022-09-21T10:47:38.374Z,102252.16
2022-09-21T10:48:40.983Z,102256.31
2022-09-21T10:49:45.847Z,102246.94
2022-09-21T10:50:50.246Z,102250.94
2022-09-21T10:51:54.828Z,102251.47
2022-09-21T10:53:02.538Z,102251.09
2022-09-21T10:54:08.839Z,102249.78
2022-09-21T10:55:18.740Z,102255.59
2022-09-21T10:56:20.590Z,102249.19
2022-09-21T10:57:26.137Z,102249.94
2022-09-21T10:58:28.467Z,102244.44
2022-09-21T10:59:32.871Z,102249.56
2022-09-21T11:00:42.041Z,102244.19
2022-09-21T11:01:46.754Z,102252.97
2022-09-21T11:02:50.679Z,102249.44
2022-09-21T11:04:00.573Z,102234.25
2022-09-21T11:05:10.182Z,102237.88
2022-09-21T11:06:18.239Z,102249.44
2022-09-21T11:07:28.532Z,102237.03
2022-09-21T11:08:37.745Z,102234.47
2022-09-21T11:09:45.327Z,102243.47
2022-09-21T11:10:56.028Z,102238.97
2022-09-21T11:12:02.038Z,102237.16
2022-09-21T11:13:19.132Z,102238.97
2022-09-21T11:14:34.858Z,102234.47
2022-09-21T11:15:45.763Z,102240.66
2022-09-21T11:16:56.514Z,102234.47
2022-09-21T11:18:05.442Z,102234.47
2022-09-21T11:19:18.500Z,102236.16
2022-09-21T11:20:31.428Z,102231.66
2022-09-21T11:21:42.290Z,102242.28
2022-09-21T11:22:57.527Z,102229.00
2022-09-21T11:24:10.830Z,102234.47
2022-09-21T11:25:28.499Z,102233.00
2022-09-21T11:26:46.517Z,102233.25
2022-09-21T11:27:55.280Z,102238.63
2022-09-21T11:29:03.062Z,102236.66
2022-09-21T11:30:11.092Z,102221.22
2022-09-21T11:31:42.263Z,102222.69
2022-09-21T11:33:11.125Z,102229.50
2022-09-21T11:34:47.835Z,102222.78
2022-09-21T11:36:01.440Z,102218.03
2022-09-21T11:37:14.137Z,102219.50
2022-09-21T11:38:34.421Z,102221.09
2022-09-21T11:39:51.634Z,102214.50
2022-09-21T11:41:07.319Z,102211.44
2022-09-21T11:42:21.735Z,102218.25
2022-09-21T11:43:37.462Z,102207.19
2022-09-21T11:44:52.936Z,102200.56
2022-09-21T11:46:04.448Z,102202.75
2022-09-21T11:47:17.020Z,102202.38
2022-09-21T11:48:28.915Z,102199.34
2022-09-21T11:49:59.026Z,102203.59
2022-09-21T11:51:25.273Z,102199.78
2022-09-21T11:52:40.198Z,102195.91
2022-09-21T11:53:54.086Z,102197.34
2022-09-21T11:55:23.091Z,102201.44
2022-09-21T11:56:44.134Z,102195.97
2022-09-21T11:57:55.148Z,102190.25
2022-09-21T11:59:06.795Z,102189.00
2022-09-21T12:00:15.619Z,102194.09
2022-09-21T12:01:37.222Z,102194.84
2022-09-21T12:03:15.224Z,102189.47
2022-09-21T12:04:37.442Z,102190.34
2022-09-21T12:05:46.332Z,102184.75
2022-09-21T12:07:06.833Z,102188.13
2022-09-21T12:08:37.896Z,102183.47
2022-09-21T12:10:18.636Z,102187.28
2022-09-21T12:11:32.428Z,102187.28
2022-09-21T12:12:42.072Z,102186.16
2022-09-21T12:13:53.984Z,102179.72
2022-09-21T12:15:03.735Z,102185.66
2022-09-21T12:16:14.247Z,102185.25
2022-09-21T12:17:27.401Z,102180.63
2022-09-21T12:18:37.326Z,102174.41
2022-09-21T12:19:45.792Z,102170.88
2022-09-21T12:20:57.202Z,102178.06
2022-09-21T12:22:04.780Z,102178.94
2022-09-21T12:23:27.533Z,102172.72
2022-09-21T12:24:34.296Z,102176.94
2022-09-21T12:25:41.766Z,102175.00
2022-09-21T12:26:49.071Z,102173.03
2022-09-21T12:27:53.489Z,102179.13
2022-09-21T12:29:02.086Z,102171.66
2022-09-21T12:30:11.367Z,102169.56
2022-09-21T12:31:31.493Z,102175.53
2022-09-21T12:32:49.443Z,102171.97
2022-09-21T12:33:55.007Z,102169.19
2022-09-21T12:35:00.765Z,102169.03
2022-09-21T12:36:10.317Z,102170.75
2022-09-21T12:37:16.836Z,102171.47
2022-09-21T12:38:24.400Z,102170.38
2022-09-21T12:39:33.763Z,102176.44
2022-09-21T12:40:40.303Z,102160.22
2022-09-21T12:41:52.041Z,102163.59
2022-09-21T12:43:01.584Z,102163.34
2022-09-21T12:44:16.731Z,102162.38
2022-09-21T12:45:23.992Z,102164.78
2022-09-21T12:46:32.312Z,102161.13